Time;durP1;ratioP1;P1;durP2;ratioP2;P2;SDS_P1;SDS_P2;PMS_P1;PMS_P2;Temp;Humidity;BMP_temperature;BMP_pressure;BME280_temperature;BME280_humidity;BME280_pressure;Samples;Min_cycle;Max_cycle;Signal;HPM_P1;HPM_P2
2022/11/06 00:01:21;;;;;;;;;14.00;12.00;;;;;23.21;46.92;101300.19;5037987;28;46201;-70
2022/11/06 00:03:46;;;;;;;;;12.50;11.25;;;;;23.21;47.05;101308.16;5037563;28;45351;-75
2022/11/06 00:08:59;;;;;;;;;16.50;11.25;;;;;23.13;46.65;101322.31;5037862;28;45348;-71
2022/11/06 00:11:24;;;;;;;;;14.00;13.00;;;;;23.12;46.50;101317.97;5037918;28;46100;-70
2022/11/06 00:13:53;;;;;;;;;12.25;11.75;;;;;23.14;46.70;101319.47;5037934;28;45285;-70
2022/11/06 00:16:19;;;;;;;;;11.25;11.25;;;;;23.10;46.41;101296.94;5037992;28;45249;-70
2022/11/06 00:18:45;;;;;;;;;11.50;11.50;;;;;23.07;46.31;101298.13;5036570;28;45391;-71
2022/11/06 00:21:14;;;;;;;;;11.00;10.25;;;;;23.17;46.09;101310.31;5037669;28;46995;-71
2022/11/06 00:23:40;;;;;;;;;12.75;11.25;;;;;23.14;46.39;101303.53;5037324;28;45388;-70
2022/11/06 00:26:11;;;;;;;;;13.25;11.25;;;;;23.15;46.27;101301.72;5036409;28;45419;-71
2022/11/06 00:28:37;;;;;;;;;11.25;11.25;;;;;23.14;46.34;101303.53;5037681;28;45406;-71
2022/11/06 00:31:04;;;;;;;;;9.75;9.00;;;;;23.15;46.00;101296.41;5037868;28;46085;-70
2022/11/06 00:33:29;;;;;;;;;11.50;10.75;;;;;23.13;46.05;101287.78;5037754;28;45507;-70
2022/11/06 00:35:55;;;;;;;;;15.00;10.75;;;;;23.13;45.82;101282.50;5037687;28;45416;-70
2022/11/06 00:38:21;;;;;;;;;9.50;9.50;;;;;23.08;46.12;101277.72;5037202;28;45399;-71
2022/11/06 00:40:46;;;;;;;;;11.00;9.00;;;;;23.12;45.76;101279.00;5037272;28;47431;-70
2022/11/06 00:43:11;;;;;;;;;13.50;9.00;;;;;23.12;45.79;101272.88;5037657;28;45402;-70
2022/11/06 00:45:37;;;;;;;;;8.75;7.75;;;;;23.12;46.14;101276.34;5037650;28;45360;-71
2022/11/06 00:48:02;;;;;;;;;10.75;10.75;;;;;23.11;45.99;101273.88;5037681;28;45316;-70
2022/11/06 00:50:27;;;;;;;;;10.00;10.00;;;;;23.10;45.70;101275.72;5037307;28;46816;-70
2022/11/06 00:52:53;;;;;;;;;9.50;9.25;;;;;23.10;45.88;101282.84;5037286;28;45345;-70
2022/11/06 00:55:19;;;;;;;;;8.75;8.50;;;;;23.07;45.68;101266.28;5037521;28;45379;-70
2022/11/06 00:57:44;;;;;;;;;10.00;10.00;;;;;23.10;46.16;101272.22;5037474;28;45628;-70
2022/11/06 01:00:10;;;;;;;;;8.75;8.75;;;;;23.07;45.95;101263.63;5037201;28;46066;-70
2022/11/06 01:02:36;;;;;;;;;9.00;9.00;;;;;23.03;45.78;101253.53;5037287;28;45520;-70
2022/11/06 01:05:01;;;;;;;;;9.75;8.75;;;;;22.98;45.85;101254.03;5037246;28;45443;-70
2022/11/06 01:07:27;;;;;;;;;9.50;9.50;;;;;23.06;45.98;101269.91;5036958;28;45477;-71
2022/11/06 01:09:52;;;;;;;;;8.00;8.00;;;;;23.05;45.80;101275.41;5037145;28;46398;-70
2022/11/06 01:12:17;;;;;;;;;8.25;8.25;;;;;23.05;45.31;101264.78;5037309;28;45383;-70
2022/11/06 01:14:43;;;;;;;;;9.75;9.75;;;;;23.03;45.66;101254.34;5037288;28;45373;-70
2022/11/06 01:17:08;;;;;;;;;9.00;9.00;;;;;22.91;45.60;101231.88;5036965;28;45439;-70
2022/11/06 01:19:34;;;;;;;;;8.25;8.25;;;;;23.00;45.34;101238.78;5036922;28;46013;-70
2022/11/06 01:21:59;;;;;;;;;6.75;6.75;;;;;22.98;45.60;101232.00;5036725;28;45432;-70
2022/11/06 01:24:26;;;;;;;;;10.00;8.00;;;;;22.99;45.44;101229.16;5037001;28;45362;-70
2022/11/06 01:26:52;;;;;;;;;4.00;2.50;;;;;23.01;45.29;101227.16;5036717;28;45652;-70
2022/11/06 01:29:18;;;;;;;;;9.00;9.00;;;;;22.99;45.82;101223.88;5036747;28;46341;-70
2022/11/06 01:31:44;;;;;;;;;8.50;7.75;;;;;23.00;45.90;101217.56;5036395;28;45214;-70
2022/11/06 01:34:11;;;;;;;;;9.00;7.00;;;;;23.00;45.93;101230.00;5037005;28;45184;-71
2022/11/06 01:36:36;;;;;;;;;8.00;8.00;;;;;22.94;45.33;101220.91;5036554;28;45307;-70
2022/11/06 01:39:04;;;;;;;;;8.25;7.00;;;;;22.96;45.77;101230.34;5036549;28;46134;-71
2022/11/06 01:41:37;;;;;;;;;7.00;7.00;;;;;22.96;45.77;101224.22;5036616;28;45326;-70
2022/11/06 01:44:22;;;;;;;;;6.67;6.67;;;;;22.98;45.81;101227.50;5036747;28;45436;-70
2022/11/06 01:46:47;;;;;;;;;7.00;6.67;;;;;22.96;45.72;101213.59;5036564;28;45423;-70
2022/11/06 01:49:15;;;;;;;;;6.50;6.50;;;;;22.97;45.89;101220.56;5036323;28;51634;-70
2022/11/06 01:51:46;;;;;;;;;10.67;8.67;;;;;22.91;45.41;101202.69;5018210;28;45501;-70
2022/11/06 01:54:13;;;;;;;;;9.00;7.75;;;;;22.87;45.78;101188.97;5036603;28;45357;-70
2022/11/06 01:56:40;;;;;;;;;6.67;5.00;;;;;22.95;45.57;101198.69;5036645;28;45364;-70
2022/11/06 01:59:08;;;;;;;;;8.25;5.75;;;;;22.94;45.77;101183.78;5036336;28;47045;-70
2022/11/06 02:01:33;;;;;;;;;6.33;6.00;;;;;22.91;45.80;101174.34;5036315;28;45309;-70
2022/11/06 02:04:19;;;;;;;;;6.00;6.00;;;;;22.94;45.79;101168.69;5036516;28;45584;-70
2022/11/06 02:06:46;;;;;;;;;7.00;7.00;;;;;22.91;45.33;101165.53;5036522;28;45318;-70
2022/11/06 02:09:11;;;;;;;;;6.67;6.67;;;;;22.94;45.60;101183.78;5018544;28;45377;-70
2022/11/06 02:11:39;;;;;;;;;6.00;6.00;;;;;22.93;45.62;101180.28;5036088;28;45429;-70
2022/11/06 02:14:28;;;;;;;;;10.25;7.75;;;;;22.93;45.64;101177.63;5036446;28;45390;-70
2022/11/06 02:17:05;;;;;;;;;7.00;6.33;;;;;22.93;45.72;101182.94;5033942;28;45307;-70
2022/11/06 02:19:42;;;;;;;;;6.00;6.00;;;;;22.94;45.10;101179.28;5015902;28;46228;-70
2022/11/06 02:22:07;;;;;;;;;4.67;4.67;;;;;22.94;45.68;101174.00;5016040;28;45318;-70
2022/11/06 02:24:47;;;;;;;;;5.00;5.00;;;;;22.94;45.09;101176.63;5024449;28;45278;-70
2022/11/06 02:27:16;;;;;;;;;6.25;6.25;;;;;22.89;45.10;101156.94;5035881;28;45212;-70
2022/11/06 02:29:49;;;;;;;;;7.00;6.00;;;;;22.88;45.23;101150.81;5035765;28;46037;-70
2022/11/06 02:32:56;;;;;;;;;5.67;5.67;;;;;22.95;45.54;101159.69;5035803;28;45350;-71
2022/11/06 02:35:27;;;;;;;;;5.75;5.25;;;;;22.90;45.26;101150.66;5035318;28;45294;-70
2022/11/06 02:37:59;;;;;;;;;5.00;4.00;;;;;22.94;45.63;101144.81;5035928;28;45409;-70
2022/11/06 02:40:32;;;;;;;;;5.67;5.67;;;;;22.90;45.33;101132.88;5035629;28;46782;-70
2022/11/06 02:43:01;;;;;;;;;6.67;5.33;;;;;22.93;44.92;101137.84;5034598;28;45395;-70
2022/11/06 02:45:31;;;;;;;;;6.00;6.00;;;;;22.92;45.35;101128.25;5035830;28;45397;-70
2022/11/06 02:47:58;;;;;;;;;8.50;7.50;;;;;22.91;45.16;101120.44;5035499;28;45381;-71
2022/11/06 02:50:34;;;;;;;;;5.67;5.67;;;;;22.91;45.40;101117.78;5035488;28;47214;-70
2022/11/06 02:53:08;;;;;;;;;5.00;4.67;;;;;22.91;45.36;101112.47;5035494;28;45391;-70
2022/11/06 02:55:39;;;;;;;;;4.67;4.00;;;;;22.81;45.53;101095.00;5035613;28;45322;-70
2022/11/06 02:58:38;;;;;;;;;6.00;5.00;;;;;22.90;45.30;101102.91;5035745;28;45365;-70
2022/11/06 03:01:26;;;;;;;;;4.67;4.67;;;;;22.77;45.47;101082.28;5035300;28;46046;-71
2022/11/06 03:03:56;;;;;;;;;5.67;5.00;;;;;22.88;45.04;101089.78;5034958;28;45310;-70
2022/11/06 03:06:43;;;;;;;;;4.67;4.67;;;;;22.90;45.51;101086.97;5035565;28;45322;-70
2022/11/06 03:09:13;;;;;;;;;5.00;4.67;;;;;22.88;45.07;101084.47;5035511;28;45651;-70
2022/11/06 03:11:38;;;;;;;;;4.67;4.67;;;;;22.88;45.54;101079.19;5035261;28;47207;-70
2022/11/06 03:14:18;;;;;;;;;4.00;4.00;;;;;22.88;45.55;101081.00;5017520;28;45287;-70
2022/11/06 03:16:58;;;;;;;;;0.67;0.00;;;;;22.88;45.44;101078.34;5033743;28;45595;-70
2022/11/06 03:19:31;;;;;;;;;5.67;5.67;;;;;22.87;45.48;101069.59;5015515;28;45301;-70
2022/11/06 03:22:13;;;;;;;;;5.00;4.00;;;;;22.87;45.43;101074.06;5015346;28;46223;-70
2022/11/06 03:25:16;;;;;;;;;5.33;5.33;;;;;22.86;45.06;101086.50;5024256;28;45437;-70
2022/11/06 03:27:51;;;;;;;;;4.33;4.33;;;;;22.85;45.56;101075.06;5035282;28;45489;-70
2022/11/06 03:30:17;;;;;;;;;4.33;4.33;;;;;22.83;45.56;101077.06;5035233;28;45446;-70
2022/11/06 03:32:48;;;;;;;;;2.67;2.67;;;;;22.84;45.58;101069.94;5034847;28;46033;-70
2022/11/06 03:35:22;;;;;;;;;4.00;4.00;;;;;22.85;45.29;101066.28;5035255;28;45251;-70
2022/11/06 03:37:53;;;;;;;;;4.00;4.00;;;;;22.85;45.37;101066.28;5035216;28;45437;-70
2022/11/06 03:40:20;;;;;;;;;4.67;4.33;;;;;22.85;44.98;101055.66;5034343;28;45377;-70
2022/11/06 03:42:48;;;;;;;;;4.00;4.00;;;;;22.76;45.42;101041.66;5034975;28;45356;-70
2022/11/06 03:45:20;;;;;;;;;5.33;5.00;;;;;22.84;45.04;101059.31;5035010;28;45232;-70
2022/11/06 03:47:56;;;;;;;;;4.00;3.67;;;;;22.85;45.22;101067.09;5034695;28;45360;-70
2022/11/06 03:50:27;;;;;;;;;5.33;4.33;;;;;22.84;45.11;101067.28;5035144;28;45366;-70
2022/11/06 03:53:03;;;;;;;;;4.67;2.67;;;;;22.87;45.14;101071.41;5034753;28;45440;-71
2022/11/06 03:55:35;;;;;;;;;4.00;4.00;;;;;22.87;45.55;101071.41;5038537;28;45414;-70
2022/11/06 03:58:15;;;;;;;;;3.33;3.33;;;;;22.88;45.28;101075.69;5038287;28;45466;-70
2022/11/06 04:00:42;;;;;;;;;5.33;5.33;;;;;22.87;44.88;101074.91;5037916;28;45463;-70
2022/11/06 04:03:21;;;;;;;;;3.33;3.33;;;;;22.88;45.45;101063.25;5038109;28;47215;-70
2022/11/06 04:06:06;;;;;;;;;5.33;4.33;;;;;22.87;45.52;101069.59;5038407;28;45353;-70
2022/11/06 04:14:07;;;;;;;;;4.00;4.00;;;;;22.85;45.14;101064.44;5037891;28;45766;-69
2022/11/06 04:16:37;;;;;;;;;3.67;3.00;;;;;22.87;45.48;101071.41;5036797;28;45227;-70
2022/11/06 04:19:12;;;;;;;;;4.67;3.67;;;;;22.86;45.47;101070.59;5018195;28;45504;-70
2022/11/06 04:22:11;;;;;;;;;4.67;4.00;;;;;22.86;45.11;101062.63;5018148;28;45384;-71
2022/11/06 04:27:49;;;;;;;;;4.00;3.00;;;;;22.85;45.25;101048.53;5037869;28;45408;-70
2022/11/06 04:30:16;;;;;;;;;2.00;2.00;;;;;22.84;45.45;101057.50;5037532;28;45472;-70
2022/11/06 04:33:13;;;;;;;;;5.33;5.33;;;;;22.83;45.50;101050.53;5037741;28;45377;-70
2022/11/06 04:36:09;;;;;;;;;3.00;3.00;;;;;22.84;45.47;101044.25;5037650;28;46352;-70
2022/11/06 04:38:46;;;;;;;;;3.67;3.67;;;;;22.79;45.36;101033.34;5037646;28;45275;-70
2022/11/06 04:41:17;;;;;;;;;2.67;2.67;;;;;22.83;45.06;101049.72;5037669;28;45212;-70
2022/11/06 04:43:58;;;;;;;;;3.33;3.00;;;;;22.80;45.47;101045.59;5037295;28;45393;-70
2022/11/06 04:46:35;;;;;;;;;4.67;4.33;;;;;22.78;45.04;101036.16;5037510;28;45341;-70
2022/11/06 04:49:03;;;;;;;;;4.33;4.33;;;;;22.81;45.19;101034.00;5037483;28;45354;-70
2022/11/06 04:51:34;;;;;;;;;3.00;3.00;;;;;22.74;45.09;101020.59;5037677;28;45298;-70
2022/11/06 04:54:00;;;;;;;;;5.00;4.00;;;;;22.68;44.95;101002.75;5037507;28;45364;-70
2022/11/06 04:56:29;;;;;;;;;4.33;4.33;;;;;22.81;45.24;101017.25;5037324;28;45291;-70
2022/11/06 04:58:55;;;;;;;;;4.33;3.67;;;;;22.82;45.10;101014.41;5037072;28;45367;-70
2022/11/06 05:01:21;;;;;;;;;3.33;3.33;;;;;22.75;45.42;100989.59;5037393;28;45411;-70
2022/11/06 05:03:46;;;;;;;;;3.67;2.67;;;;;22.81;45.10;100994.19;5037366;28;45476;-70
2022/11/06 05:06:12;;;;;;;;;3.00;3.00;;;;;22.81;45.46;100986.25;5036181;28;46315;-69
2022/11/06 05:08:37;;;;;;;;;3.67;3.67;;;;;22.80;44.89;100981.94;5037279;28;45440;-70
2022/11/06 05:11:03;;;;;;;;;3.67;3.67;;;;;22.80;44.89;100970.50;5019590;28;45436;-70
2022/11/06 05:13:28;;;;;;;;;5.00;3.67;;;;;22.81;44.90;100964.19;5036973;28;45410;-70
2022/11/06 05:15:56;;;;;;;;;4.33;2.00;;;;;22.82;45.42;100963.19;5037040;28;47050;-70
2022/11/06 05:18:21;;;;;;;;;3.67;3.67;;;;;22.81;45.33;100956.22;5022940;28;45344;-71
2022/11/06 05:20:46;;;;;;;;;5.00;4.00;;;;;22.79;45.00;100942.34;5017324;28;45405;-70
2022/11/06 05:23:12;;;;;;;;;4.00;3.00;;;;;22.79;44.86;100931.72;5017371;28;45404;-70
2022/11/06 05:25:39;;;;;;;;;2.67;2.67;;;;;22.78;45.23;100938.03;5033469;28;54942;-70
2022/11/06 05:28:06;;;;;;;;;3.67;3.67;;;;;22.82;45.19;100939.31;5036737;28;45453;-70
2022/11/06 05:30:33;;;;;;;;;2.67;2.67;;;;;22.81;45.29;100935.84;5037057;28;45353;-70
2022/11/06 05:32:58;;;;;;;;;3.00;3.00;;;;;22.81;45.44;100932.34;5036888;28;45270;-70
2022/11/06 05:35:23;;;;;;;;;3.33;2.67;;;;;22.84;44.80;100929.34;5036857;28;45316;-70
2022/11/06 05:37:49;;;;;;;;;3.67;2.67;;;;;22.83;45.00;100935.66;5036754;28;45306;-70
2022/11/06 05:40:14;;;;;;;;;2.00;2.00;;;;;22.82;44.95;100928.72;5018899;28;45410;-70
2022/11/06 05:42:40;;;;;;;;;3.00;3.00;;;;;22.82;45.08;100924.22;5036670;28;45313;-70
2022/11/06 05:45:07;;;;;;;;;2.00;2.00;;;;;22.82;45.01;100926.84;5036609;28;46159;-70
2022/11/06 05:47:33;;;;;;;;;4.00;4.00;;;;;22.81;45.15;100925.22;5036547;28;45349;-70
2022/11/06 05:49:58;;;;;;;;;4.00;4.00;;;;;22.76;45.23;100911.69;5036740;28;45324;-70
2022/11/06 05:52:23;;;;;;;;;3.33;3.33;;;;;22.80;45.01;100915.63;5036599;28;45385;-70
2022/11/06 05:54:49;;;;;;;;;3.00;3.00;;;;;22.80;45.00;100910.31;5036445;28;47109;-70
2022/11/06 05:57:14;;;;;;;;;3.00;3.00;;;;;22.80;45.55;100905.00;5036126;28;45363;-70
2022/11/06 05:59:40;;;;;;;;;3.33;3.33;;;;;22.74;45.24;100889.84;5036702;28;45409;-70
2022/11/06 06:02:06;;;;;;;;;5.67;3.00;;;;;22.81;45.00;100897.88;5036557;28;45350;-70
2022/11/06 06:04:31;;;;;;;;;3.67;3.00;;;;;22.72;44.84;100890.00;5018316;28;46164;-70
2022/11/06 06:06:56;;;;;;;;;2.00;2.00;;;;;22.79;44.80;100886.63;5036456;28;45405;-70
2022/11/06 06:09:22;;;;;;;;;4.00;3.67;;;;;22.79;45.14;100889.28;5036608;28;45316;-70
2022/11/06 06:11:51;;;;;;;;;6.67;4.67;;;;;22.79;45.33;100897.25;5035887;28;45825;-70
2022/11/06 06:14:17;;;;;;;;;5.00;2.67;;;;;22.78;45.50;100888.44;5036111;28;47347;-70
2022/11/06 06:16:42;;;;;;;;;2.67;2.67;;;;;22.76;44.85;100879.88;5017317;28;45856;-70
2022/11/06 06:19:07;;;;;;;;;3.00;3.00;;;;;22.77;44.87;100880.69;5016192;28;47371;-70
2022/11/06 06:21:33;;;;;;;;;2.00;2.00;;;;;22.78;45.49;100879.66;5016126;28;47024;-70
2022/11/06 06:23:58;;;;;;;;;4.00;4.00;;;;;22.78;45.04;100879.66;5019506;28;45373;-70
2022/11/06 06:26:24;;;;;;;;;3.00;3.00;;;;;22.72;44.87;100868.78;5035504;28;45359;-70
2022/11/06 06:28:49;;;;;;;;;4.00;2.33;;;;;22.71;45.11;100869.81;5036187;28;45361;-69
2022/11/06 06:31:15;;;;;;;;;5.00;3.67;;;;;22.77;45.15;100876.19;5036255;28;45654;-70
2022/11/06 06:33:40;;;;;;;;;3.00;3.00;;;;;22.67;45.45;100857.06;5035813;28;47076;-70
2022/11/06 06:36:06;;;;;;;;;3.67;3.00;;;;;22.68;45.33;100856.88;5035938;28;45223;-70
2022/11/06 06:38:31;;;;;;;;;4.00;3.00;;;;;22.72;45.34;100852.03;5036130;28;45283;-70
2022/11/06 06:41:01;;;;;;;;;2.33;2.33;;;;;22.77;44.89;100856.81;5035733;28;45221;-70
2022/11/06 06:43:27;;;;;;;;;4.00;4.00;;;;;22.75;45.32;100849.03;5035845;28;46159;-70
2022/11/06 06:45:52;;;;;;;;;3.00;3.00;;;;;22.77;45.30;100848.88;5035808;28;45308;-70
2022/11/06 06:48:18;;;;;;;;;2.67;1.67;;;;;22.76;45.33;100853.34;5035961;28;45320;-69
2022/11/06 06:50:43;;;;;;;;;4.00;3.00;;;;;22.76;44.93;100848.03;5035803;28;48417;-70
2022/11/06 06:53:08;;;;;;;;;3.00;2.00;;;;;22.70;45.31;100831.03;5035572;28;46916;-70
2022/11/06 06:55:34;;;;;;;;;4.33;2.67;;;;;22.78;45.03;100839.88;5035309;28;45365;-70
2022/11/06 06:58:00;;;;;;;;;2.33;2.33;;;;;22.78;45.10;100824.78;5017665;28;46110;-70
2022/11/06 07:00:27;;;;;;;;;2.00;2.00;;;;;22.79;44.81;100828.28;5035099;28;45500;-70
2022/11/06 07:02:52;;;;;;;;;2.33;2.33;;;;;22.78;45.26;100821.31;5035543;28;46280;-70
2022/11/06 07:05:18;;;;;;;;;2.67;2.67;;;;;22.76;45.47;100816.22;5035407;28;45492;-70
2022/11/06 07:07:43;;;;;;;;;3.00;3.00;;;;;22.78;45.32;100824.78;5035564;28;45387;-70
2022/11/06 07:10:09;;;;;;;;;2.00;2.00;;;;;22.78;44.99;100816.84;5035328;28;45392;-70
2022/11/06 07:12:34;;;;;;;;;2.00;2.00;;;;;22.74;45.51;100811.06;5035411;28;46915;-70
2022/11/06 07:15:00;;;;;;;;;3.00;2.33;;;;;22.78;45.25;100816.84;5035427;28;45427;-70
2022/11/06 07:17:26;;;;;;;;;4.00;3.00;;;;;22.79;44.96;100817.66;5028944;28;45797;-70
2022/11/06 07:19:52;;;;;;;;;2.67;2.67;;;;;22.78;44.91;100819.50;5015428;28;45271;-70
2022/11/06 07:22:17;;;;;;;;;3.00;2.00;;;;;22.78;44.98;100813.34;5015363;28;45429;-70
2022/11/06 07:24:42;;;;;;;;;5.00;1.67;;;;;22.76;45.51;100808.25;5024499;28;45372;-70
2022/11/06 07:27:08;;;;;;;;;2.00;1.00;;;;;22.76;44.98;100810.91;5035097;28;45500;-70
2022/11/06 07:29:33;;;;;;;;;2.00;2.00;;;;;22.77;44.87;100814.38;5037472;28;45362;-70
2022/11/06 07:31:58;;;;;;;;;3.00;3.00;;;;;22.72;44.95;100807.78;5038783;28;46986;-70
2022/11/06 07:34:24;;;;;;;;;2.33;1.67;;;;;22.76;45.20;100832.13;5038757;28;45379;-70
2022/11/06 07:36:49;;;;;;;;;2.00;2.00;;;;;22.74;45.41;100810.28;5038901;28;45559;-70
2022/11/06 07:39:15;;;;;;;;;5.00;4.00;;;;;22.74;44.84;100819.03;5038478;28;45499;-69
2022/11/06 07:41:40;;;;;;;;;2.67;2.00;;;;;22.73;45.31;100809.44;5038425;28;46256;-70
2022/11/06 07:44:05;;;;;;;;;2.00;2.00;;;;;22.74;45.16;100802.31;5038630;28;46118;-70
2022/11/06 07:46:31;;;;;;;;;2.33;2.00;;;;;22.74;45.48;100803.13;5038661;28;45378;-70
2022/11/06 07:48:56;;;;;;;;;3.00;2.33;;;;;22.74;45.38;100804.97;5038732;28;45208;-70
2022/11/06 07:51:21;;;;;;;;;1.67;1.67;;;;;22.72;45.56;100815.75;5020603;28;50695;-70
2022/11/06 07:53:46;;;;;;;;;2.33;2.00;;;;;22.74;45.18;100812.94;5038182;28;45381;-70
2022/11/06 07:56:12;;;;;;;;;1.67;1.67;;;;;22.74;45.46;100828.84;5038510;28;45291;-69
2022/11/06 07:58:37;;;;;;;;;2.33;2.33;;;;;22.65;45.12;100804.22;5038540;28;45324;-70
2022/11/06 08:01:03;;;;;;;;;2.00;1.67;;;;;22.64;45.09;100802.56;5038241;28;45361;-70
2022/11/06 08:03:29;;;;;;;;;2.33;2.33;;;;;22.73;45.06;100828.00;5038452;28;45370;-70
2022/11/06 08:05:55;;;;;;;;;2.00;1.00;;;;;22.71;44.96;100814.13;5038354;28;45376;-71
2022/11/06 08:08:21;;;;;;;;;1.67;1.67;;;;;22.73;45.16;100824.53;5038053;28;45359;-71
2022/11/06 08:10:46;;;;;;;;;2.00;2.00;;;;;22.69;45.40;100812.63;5038119;28;46096;-70
2022/11/06 08:13:16;;;;;;;;;3.67;3.00;;;;;22.71;45.11;100811.47;5038221;28;45301;-70
2022/11/06 08:15:42;;;;;;;;;4.00;3.00;;;;;22.72;44.94;100818.41;5038203;28;45375;-70
2022/11/06 08:18:09;;;;;;;;;1.67;1.67;;;;;22.74;45.44;100826.19;5025820;28;45423;-70
2022/11/06 08:20:35;;;;;;;;;2.67;2.67;;;;;22.74;45.41;100815.56;5017969;28;46334;-70
2022/11/06 08:23:02;;;;;;;;;2.33;2.33;;;;;22.74;45.32;100808.41;5017623;28;45369;-70
2022/11/06 08:25:29;;;;;;;;;1.67;1.67;;;;;22.74;45.48;100802.31;5033546;28;45374;-70
2022/11/06 08:27:55;;;;;;;;;3.00;3.00;;;;;22.74;44.99;100799.66;5038023;28;45359;-70
2022/11/06 08:30:21;;;;;;;;;2.00;2.00;;;;;22.73;44.87;100793.53;5037698;28;46218;-70
2022/11/06 08:32:46;;;;;;;;;3.00;2.00;;;;;22.75;45.00;100793.34;5037808;28;45286;-70
2022/11/06 08:35:11;;;;;;;;;1.00;1.00;;;;;22.73;44.84;100787.41;5038074;28;45218;-70
2022/11/06 08:37:37;;;;;;;;;2.00;1.00;;;;;22.74;44.87;100784.56;5037510;28;45331;-70
2022/11/06 08:40:03;;;;;;;;;1.67;1.00;;;;;22.74;45.37;100791.72;5036233;28;54942;-70
2022/11/06 08:42:28;;;;;;;;;2.33;1.67;;;;;22.65;44.90;100766.25;5036769;28;45389;-70
2022/11/06 08:44:54;;;;;;;;;2.00;2.00;;;;;22.74;45.00;100773.94;5037740;28;45411;-70
2022/11/06 08:47:19;;;;;;;;;1.67;1.33;;;;;22.74;45.32;100770.50;5037884;28;45285;-70
2022/11/06 08:49:44;;;;;;;;;1.33;1.33;;;;;22.73;44.90;100764.34;5037500;28;46051;-70
2022/11/06 08:52:10;;;;;;;;;2.00;2.00;;;;;22.68;45.37;100757.94;5037176;28;47885;-70
2022/11/06 08:54:35;;;;;;;;;2.00;2.00;;;;;22.71;45.49;100762.91;5037696;28;45353;-70
2022/11/06 08:57:00;;;;;;;;;1.67;1.67;;;;;22.68;45.45;100747.31;5037504;28;45383;-71
2022/11/06 08:59:26;;;;;;;;;1.67;1.67;;;;;22.71;45.40;100758.44;5037405;28;46905;-70
2022/11/06 09:01:51;;;;;;;;;1.33;1.33;;;;;22.72;45.08;100756.56;5019126;28;45406;-70
2022/11/06 09:04:17;;;;;;;;;1.67;1.67;;;;;22.66;45.25;100739.56;5037605;28;45367;-70
2022/11/06 09:06:42;;;;;;;;;2.33;1.00;;;;;22.71;45.27;100750.47;5037120;28;45384;-70
2022/11/06 09:09:08;;;;;;;;;2.00;2.00;;;;;22.71;45.51;100747.00;5037267;28;45986;-73
2022/11/06 09:11:34;;;;;;;;;2.67;1.67;;;;;22.71;45.07;100739.84;5037359;28;45274;-70
2022/11/06 09:13:59;;;;;;;;;2.67;1.00;;;;;22.71;45.11;100747.00;5019015;28;45329;-71
2022/11/06 09:16:25;;;;;;;;;3.00;1.67;;;;;22.71;45.26;100745.16;5020505;28;45309;-69
2022/11/06 09:18:54;;;;;;;;;2.00;2.00;;;;;22.69;45.54;100728.56;5016511;28;46005;-69
2022/11/06 09:21:19;;;;;;;;;1.67;1.67;;;;;22.69;45.11;100719.81;5016707;28;45382;-69
2022/11/06 09:23:47;;;;;;;;;1.67;1.67;;;;;22.67;45.67;100725.28;5018766;28;45413;-69
2022/11/06 09:26:13;;;;;;;;;1.67;1.67;;;;;22.67;45.88;100711.19;5036976;28;45437;-70
2022/11/06 09:28:38;;;;;;;;;1.00;1.00;;;;;22.63;45.88;100714.25;5036872;28;45927;-72
2022/11/06 09:31:04;;;;;;;;;0.67;0.67;;;;;22.67;45.85;100712.03;5037008;28;45444;-70
2022/11/06 09:33:29;;;;;;;;;2.33;1.67;;;;;22.68;46.01;100711.03;5037134;28;45368;-69
2022/11/06 09:35:54;;;;;;;;;1.00;1.00;;;;;22.70;45.77;100702.91;5026374;28;45480;-71
2022/11/06 09:38:19;;;;;;;;;2.67;2.67;;;;;22.69;46.01;100702.03;5015706;28;45990;-71
2022/11/06 09:40:56;;;;;;;;;2.67;1.67;;;;;22.70;45.51;100706.38;5003977;28;45352;-70
2022/11/06 09:43:59;;;;;;;;;2.00;2.00;;;;;22.69;45.72;100703.91;5003245;28;45412;-71
2022/11/06 09:46:38;;;;;;;;;1.67;1.33;;;;;22.69;46.19;100706.53;5006783;28;45301;-71
2022/11/06 09:49:27;;;;;;;;;1.00;1.00;;;;;22.68;46.15;100694.28;5015955;28;47275;-70
2022/11/06 09:52:21;;;;;;;;;1.67;1.67;;;;;22.71;45.86;100694.78;5010558;28;45374;-70
2022/11/06 09:54:53;;;;;;;;;1.33;1.33;;;;;22.73;45.98;100700.72;5005304;28;45314;-70
2022/11/06 09:57:26;;;;;;;;;3.33;2.00;;;;;22.74;45.87;100694.38;5016291;28;45377;-70
2022/11/06 09:59:52;;;;;;;;;4.00;2.33;;;;;22.76;46.03;100696.84;5013811;28;45548;-72
2022/11/06 10:02:29;;;;;;;;;3.33;1.67;;;;;22.79;45.87;100695.66;5008092;28;45449;-71
2022/11/06 10:04:59;;;;;;;;;1.67;1.67;;;;;22.79;45.91;100687.69;5013430;28;45370;-72
2022/11/06 10:07:32;;;;;;;;;3.00;1.33;;;;;22.80;45.51;100682.19;5013203;28;45303;-72
2022/11/06 10:10:00;;;;;;;;;1.00;1.00;;;;;22.79;45.63;100685.03;5006043;28;46372;-71
2022/11/06 10:12:53;;;;;;;;;1.00;1.00;;;;;22.79;46.00;100677.09;5009669;28;45331;-71
2022/11/06 10:15:26;;;;;;;;;2.00;1.67;;;;;22.79;45.98;100675.25;5005626;28;45401;-71
2022/11/06 10:18:05;;;;;;;;;1.00;1.00;;;;;22.80;45.74;100676.06;5015483;28;45338;-72
2022/11/06 10:20:38;;;;;;;;;3.33;1.67;;;;;22.70;45.71;100652.50;5015161;28;46117;-72
2022/11/06 10:23:17;;;;;;;;;2.33;2.33;;;;;22.80;45.83;100668.94;5015573;28;45330;-72
2022/11/06 10:26:00;;;;;;;;;2.00;2.00;;;;;22.79;45.67;100661.19;5020980;28;45469;-71
2022/11/06 10:28:42;;;;;;;;;2.67;2.00;;;;;22.79;46.19;100650.56;5035503;28;45413;-69
2022/11/06 10:31:35;;;;;;;;;2.67;1.67;;;;;22.79;45.90;100648.75;5033975;28;46140;-69
2022/11/06 10:34:12;;;;;;;;;3.00;2.67;;;;;22.80;45.95;100646.88;5032472;28;45452;-69
2022/11/06 10:36:50;;;;;;;;;2.33;2.33;;;;;22.81;45.63;100649.38;5035522;28;45365;-69
2022/11/06 10:39:21;;;;;;;;;3.33;1.67;;;;;22.81;45.71;100651.19;5035673;28;45516;-69
2022/11/06 10:41:53;;;;;;;;;4.33;1.00;;;;;22.81;46.19;100654.66;5035379;28;45483;-69
2022/11/06 10:44:27;;;;;;;;;3.33;2.33;;;;;22.82;46.04;100642.22;5026293;28;45385;-69
2022/11/06 10:47:02;;;;;;;;;4.00;2.00;;;;;22.83;46.23;100646.50;5031187;28;45426;-69
2022/11/06 10:49:46;;;;;;;;;2.00;2.00;;;;;22.84;46.30;100645.50;5035467;28;45563;-69
2022/11/06 10:52:27;;;;;;;;;3.67;1.67;;;;;22.84;46.19;100640.19;5033729;28;48161;-71
2022/11/06 10:55:06;;;;;;;;;1.67;1.00;;;;;22.83;45.77;100641.19;5035227;28;45380;-69
2022/11/06 10:57:57;;;;;;;;;3.00;2.33;;;;;22.77;46.18;100618.91;5034979;28;45210;-69
2022/11/06 11:00:22;;;;;;;;;2.67;1.67;;;;;22.81;45.69;100624.66;5021037;28;45502;-70
2022/11/06 11:03:00;;;;;;;;;2.00;2.00;;;;;22.70;46.16;100594.16;5024277;28;46060;-70
2022/11/06 11:05:36;;;;;;;;;2.00;1.67;;;;;22.86;46.12;100619.59;5032337;28;45538;-69
2022/11/06 11:08:01;;;;;;;;;2.67;2.67;;;;;22.85;46.10;100613.47;5030524;28;45363;-69
2022/11/06 11:10:30;;;;;;;;;3.00;1.67;;;;;22.83;46.39;100604.06;5031965;28;46191;-69
2022/11/06 11:12:59;;;;;;;;;3.33;3.33;;;;;22.87;45.92;100615.13;5034296;28;47081;-69
2022/11/06 11:15:43;;;;;;;;;4.00;2.67;;;;;22.87;46.30;100609.81;5031523;28;45478;-69
2022/11/06 11:18:11;;;;;;;;;4.67;2.00;;;;;22.86;46.37;100606.34;5033224;28;45467;-69
2022/11/06 11:20:39;;;;;;;;;4.00;1.67;;;;;22.80;46.42;100599.13;5019852;28;45240;-69
2022/11/06 11:23:13;;;;;;;;;2.00;2.00;;;;;22.87;46.09;100605.34;5034632;28;45416;-70
2022/11/06 11:25:42;;;;;;;;;2.00;2.00;;;;;22.87;46.22;100597.38;5026270;28;45548;-72
2022/11/06 11:28:20;;;;;;;;;2.00;2.00;;;;;22.89;46.14;100597.19;5016106;28;45445;-71
2022/11/06 11:31:08;;;;;;;;;2.00;2.00;;;;;22.89;46.25;100590.06;5018061;28;45364;-75
2022/11/06 11:33:34;;;;;;;;;4.00;1.67;;;;;22.90;46.09;100591.66;5014060;28;46182;-75
2022/11/06 11:36:02;;;;;;;;;2.00;2.00;;;;;22.91;46.00;100595.16;5014106;28;45426;-71
2022/11/06 11:38:28;;;;;;;;;4.33;2.00;;;;;22.81;45.90;100577.75;5025836;28;45360;-70
2022/11/06 11:41:06;;;;;;;;;2.00;2.00;;;;;22.94;45.79;100586.81;5034189;28;45399;-71
2022/11/06 11:43:32;;;;;;;;;1.67;1.67;;;;;22.89;46.10;100575.97;5034278;28;47067;-74
2022/11/06 11:46:07;;;;;;;;;4.00;2.00;;;;;22.94;45.86;100584.16;5033729;28;45504;-70
2022/11/06 11:48:50;;;;;;;;;3.33;2.00;;;;;22.79;45.86;100560.38;5034926;28;45522;-70